Buoy 44746

sailwx.info

Track history (hours):
 
Tides and Currents Weather Stations Pressure Air Temp Water Temp Dewpoint Dewpoint Depression Visibility Wind Speed Wind Dir Waves Ship Positions

Drifting buoy 44746

Last reported at 2017-Nov-22 10:00 UTC. Time now 2017-Nov-22 11:10 UTC.
Position N 30°42' W 029°23'.

Barometer 1017.5 mb
Water temperature 23.0 ° C

Date/timePositionNaut miles runAvg speedWind from/ knotsBaromVisibWave heightAir tempDewpointWater temp
2017-Nov-22 10:00N 30°42' W 029°23'1 0.5 1017.5 23.0
2017-Nov-22 09:00N 30°42' W 029°23'1 0.5 1017.2 23.0
2017-Nov-22 08:00N 30°42' W 029°22'0 0.0 1016.7 23.1
2017-Nov-22 07:00N 30°42' W 029°22'1 0.5 1016.2 23.1
2017-Nov-22 06:00N 30°42' W 029°22'0 0.0 1016.0 23.1
2017-Nov-22 05:00N 30°42' W 029°22'1 0.8 1016.1 23.1
2017-Nov-22 04:00N 30°41' W 029°21'1 0.5 1016.3 23.0
2017-Nov-22 03:00N 30°41' W 029°20'0 0.0 1016.3 23.0
2017-Nov-22 02:00N 30°41' W 029°20'1 0.8 1016.7 23.1
2017-Nov-22 01:00N 30°42' W 029°20'1 0.5 1016.8 23.1
2017-Nov-22 00:00N 30°42' W 029°19'0 0.0 1016.7 23.1
2017-Nov-21 23:00N 30°42' W 029°19'1 0.6 1016.8 23.1
2017-Nov-21 22:00N 30°43' W 029°19'0 0.0 1016.7 23.1
2017-Nov-21 21:00N 30°43' W 029°19'1 0.6 1016.2 23.1
2017-Nov-21 20:00N 30°43' W 029°19'1 0.5 1015.7 23.1
2017-Nov-21 19:00N 30°43' W 029°20'0 0.0 1015.0 23.1
2017-Nov-21 18:00N 30°43' W 029°20'1 0.5 1014.8 23.1
2017-Nov-21 17:00N 30°43' W 029°20'1 0.5 1014.7 23.1
2017-Nov-21 16:00N 30°43' W 029°21'0 0.0 1014.2 23.2
2017-Nov-21 15:00N 30°43' W 029°21'0 0.0 1014.4 23.2
2017-Nov-21 14:00N 30°43' W 029°21'0 0.0 1014.9 23.1
2017-Nov-21 13:00N 30°43' W 029°21'1 0.8 1015.0 23.1
2017-Nov-21 12:00N 30°43' W 029°20'0 0.0 1015.0 23.1
2017-Nov-21 11:00N 30°43' W 029°20'0 0.0 1014.5 23.1
2017-Nov-21 10:00N 30°43' W 029°20'1 0.5 1013.6 23.1
2017-Nov-21 09:00N 30°43' W 029°20'1 0.6 1013.0 23.1
2017-Nov-21 08:00N 30°43' W 029°20'1 0.5 1011.8 23.1
2017-Nov-21 07:00N 30°43' W 029°19'1 0.8 1011.3 23.1
2017-Nov-21 06:00N 30°44' W 029°19'0 0.0 1011.0 23.1
2017-Nov-21 05:00N 30°44' W 029°19'1 0.6 1010.6 23.0
2017-Nov-21 04:00N 30°44' W 029°19'1 0.5 1010.2 23.0
2017-Nov-21 03:00N 30°44' W 029°18'1 0.6 1009.8 23.0
2017-Nov-21 02:00N 30°45' W 029°18'1 0.6 1009.7 23.0
2017-Nov-21 01:00N 30°46' W 029°18'1 0.5 1009.2 23.0
2017-Nov-21 00:00N 30°46' W 029°17'1 0.6 1008.0 23.1
2017-Nov-20 23:00N 30°46' W 029°17'1 0.6 1007.4 23.1
2017-Nov-20 22:00N 30°47' W 029°17'0 0.0 1007.0 23.1
2017-Nov-20 21:00N 30°47' W 029°17'0 0.0 1006.7 23.1
2017-Nov-20 20:00N 30°47' W 029°17'1 0.8 1006.7 23.1
2017-Nov-20 19:00N 30°46' W 029°18'0 0.0 1006.7 23.1
2017-Nov-20 18:00N 30°46' W 029°18'1 0.8 1007.0 23.2
2017-Nov-20 17:00N 30°46' W 029°19'0 0.0 1007.4 23.2
2017-Nov-20 16:00N 30°46' W 029°19'1 0.8 1007.8 23.2
2017-Nov-20 15:00N 30°45' W 029°19'1 0.8 1008.5 23.1
2017-Nov-20 14:00N 30°44' W 029°20'1 0.6 1010.1 23.2
2017-Nov-20 13:00N 30°44' W 029°20'0 0.0 1011.4 23.2
2017-Nov-20 12:00N 30°44' W 029°20'1 0.8 1012.3 23.2
2017-Nov-20 11:00N 30°43' W 029°20'1 0.8 1012.7 23.2
2017-Nov-20 10:00N 30°43' W 029°21'0 0.0 1012.9 23.2
2017-Nov-20 09:00N 30°43' W 029°21'1 0.8 1012.8 23.2
2017-Nov-20 08:00N 30°42' W 029°22'1 0.8 1012.6 23.2
2017-Nov-20 07:00N 30°41' W 029°22'1 0.6 1012.2 23.2
2017-Nov-20 06:00N 30°41' W 029°22'1 1.2 1012.7 23.2
2017-Nov-20 05:00N 30°40' W 029°22'1 0.6 1013.3 23.2
2017-Nov-20 04:00N 30°39' W 029°22'1 0.6 1014.0 23.2
2017-Nov-20 03:00N 30°38' W 029°22'1 1.2 1014.4 23.2
2017-Nov-20 02:00N 30°37' W 029°22'1 0.8 1014.6 23.2
2017-Nov-20 01:00N 30°37' W 029°22'1 0.5 1014.9 23.2
2017-Nov-20 00:00N 30°37' W 029°21'1 0.8 1015.2 23.2
2017-Nov-19 23:00N 30°36' W 029°20'1 0.6 1015.6 23.2
2017-Nov-19 22:00N 30°35' W 029°20'1 0.5 1015.9 23.2
2017-Nov-19 21:00N 30°35' W 029°20'0 0.0 1016.0 23.2
2017-Nov-19 20:00N 30°35' W 029°20'1 0.5 1016.2 23.2
2017-Nov-19 19:00N 30°35' W 029°19'0 0.0 1016.0 23.3
2017-Nov-19 18:00N 30°35' W 029°19'0 0.0 1015.8 23.3
2017-Nov-19 17:00N 30°35' W 029°19'0 0.0 1015.9 23.3
2017-Nov-19 16:00N 30°35' W 029°19'1 0.6 1015.6 23.3
2017-Nov-19 15:00N 30°35' W 029°19'0 0.0 1015.9 23.3
2017-Nov-19 14:00N 30°35' W 029°19'1 0.6 1016.8 23.3
2017-Nov-19 13:00N 30°34' W 029°19'1 0.8 1017.6 23.3
2017-Nov-19 12:00N 30°34' W 029°19'1 0.6 1018.3 23.3
2017-Nov-19 11:00N 30°33' W 029°19'0 0.0 1018.0 23.3
2017-Nov-19 10:00N 30°33' W 029°19'1 0.8 1017.5 23.3
2017-Nov-19 09:00N 30°32' W 029°19'1 0.6 1017.7 23.3
2017-Nov-19 08:00N 30°32' W 029°19'1 0.8 1017.5 23.3
2017-Nov-19 07:00N 30°31' W 029°20'1 0.6 1016.7 23.3
2017-Nov-19 06:00N 30°31' W 029°20'1 0.6 1016.4 23.3
2017-Nov-19 05:00N 30°30' W 029°20'1 0.8 1016.8 23.3
2017-Nov-19 04:00N 30°29' W 029°20'1 0.8 1016.8 23.3
2017-Nov-19 03:00N 30°29' W 029°20'1 1.3 1017.2 23.3
2017-Nov-19 02:00N 30°28' W 029°19'1 0.6 1017.7 23.4
2017-Nov-19 01:00N 30°27' W 029°19'1 0.8 1017.8 23.3
2017-Nov-19 00:00N 30°26' W 029°19'1 0.8 1017.9 23.3
2017-Nov-18 23:00N 30°26' W 029°18'1 0.5 1017.6 23.4
2017-Nov-18 22:00N 30°26' W 029°17'1 0.5 1017.5 23.4
2017-Nov-18 21:00N 30°26' W 029°17'0 0.0 1017.1 23.4
2017-Nov-18 20:00N 30°26' W 029°17'0 0.0 1017.1 23.4
2017-Nov-18 19:00N 30°26' W 029°17'0 0.0 1016.9 23.4
2017-Nov-18 18:00N 30°26' W 029°17'1 0.5 1016.8 23.5
2017-Nov-18 17:00N 30°26' W 029°17'1 0.6 1016.4 23.5
2017-Nov-18 16:00N 30°25' W 029°17'0 0.0 1016.7 23.5
2017-Nov-18 15:00N 30°25' W 029°17'1 0.6 1016.7 23.5
2017-Nov-18 14:00N 30°25' W 029°17'0 0.0 1017.4 23.5
2017-Nov-18 13:00N 30°25' W 029°17'1 0.5 1017.9 23.4
2017-Nov-18 12:00N 30°25' W 029°18'1 0.6 1018.1 23.3
2017-Nov-18 11:00N 30°24' W 029°18'0 0.0 1018.1 23.2
2017-Nov-18 10:00N 30°24' W 029°18'1 0.5 1017.8 23.2
2017-Nov-18 09:00N 30°24' W 029°19'1 0.8 1017.4 23.2
2017-Nov-18 08:00N 30°23' W 029°19'1 0.5 1017.1 23.2
2017-Nov-18 07:00N 30°23' W 029°20'0 0.0 1017.0 23.2
2017-Nov-18 06:00N 30°23' W 029°20'1 0.8 1016.9 23.3
2017-Nov-18 05:00N 30°23' W 029°20'1 0.6 1016.9 23.3
2017-Nov-18 04:00N 30°22' W 029°20'1 0.6 1017.3 23.3
2017-Nov-18 03:00N 30°22' W 029°20'1 0.6 1017.4 23.3
2017-Nov-18 02:00N 30°21' W 029°20'1 0.5 1017.6 23.3
2017-Nov-18 01:00N 30°21' W 029°20'1 0.8 1017.6 23.3
2017-Nov-18 00:00N 30°20' W 029°19'1 0.5 1017.5 23.3
2017-Nov-17 23:00N 30°20' W 029°19'1 0.8 1017.5 23.3
2017-Nov-17 22:00N 30°20' W 029°18'1 0.6 1017.5 23.4
2017-Nov-17 21:00N 30°20' W 029°18'0 0.0 1017.1 23.4
2017-Nov-17 20:00N 30°20' W 029°18'0 0.0 1016.8 23.4
2017-Nov-17 19:00N 30°20' W 029°18'1 0.6 1016.8 23.4
2017-Nov-17 18:00N 30°21' W 029°18'1 0.6 1016.5 23.4
2017-Nov-17 17:00N 30°22' W 029°18'1 0.5 1016.7 23.4
2017-Nov-17 16:00N 30°22' W 029°19'1 0.5 1016.7 23.4
2017-Nov-17 15:00N 30°22' W 029°19'0 0.0 1017.2 23.4
2017-Nov-17 14:00N 30°22' W 029°19'1 0.8 1017.5 23.4
2017-Nov-17 13:00N 30°21' W 029°20'0 0.0 1018.1 23.4
2017-Nov-17 12:00N 30°21' W 029°20'1 0.8 1018.4 23.4
2017-Nov-17 11:00N 30°20' W 029°20'1 0.5 1018.1 23.4
2017-Nov-17 10:00N 30°20' W 029°21'1 0.6 1017.7 23.4
2017-Nov-17 09:00N 30°20' W 029°21'1 0.5 1017.3 23.4
2017-Nov-17 08:00N 30°20' W 029°22'1 0.8 1016.8 23.4
2017-Nov-17 07:00N 30°19' W 029°22'1 0.6 1016.6 23.4
2017-Nov-17 06:00N 30°19' W 029°22'1 0.6 1016.5 23.4
2017-Nov-17 05:00N 30°18' W 029°22'1 0.6 1016.9 23.4
2017-Nov-17 04:00N 30°17' W 029°22'0 0.0 1017.3 23.4
2017-Nov-17 03:00N 30°17' W 029°22'1 0.6 1017.3 23.4
2017-Nov-17 02:00N 30°17' W 029°22'1 0.8 1017.7 23.4
2017-Nov-17 01:00N 30°16' W 029°22'0 0.0 1018.3 23.4
2017-Nov-17 00:00N 30°16' W 029°22'1 0.5 1018.2 23.4
2017-Nov-16 23:00N 30°16' W 029°21'1 0.5 1018.2 23.4
2017-Nov-16 22:00N 30°16' W 029°20'0 0.0 1018.1 23.4
2017-Nov-16 21:00N 30°16' W 029°20'0 0.0 1017.6 23.4
2017-Nov-16 20:00N 30°16' W 029°20'1 0.6 1017.4 23.4
2017-Nov-16 19:00N 30°17' W 029°20'0 0.0 1017.1 23.4
2017-Nov-16 18:00N 30°17' W 029°20'1 0.8 1017.0 23.4
2017-Nov-16 17:00N 30°17' W 029°21'0 0.0 1017.0 23.5
2017-Nov-16 16:00N 30°17' W 029°21'1 0.8 1016.7 23.5
2017-Nov-16 15:00N 30°18' W 029°22'0 0.0 1017.0 23.5
2017-Nov-16 14:00N 30°18' W 029°22'1 0.8 1017.7 23.5
2017-Nov-16 13:00N 30°17' W 029°22'1 0.5 1018.2 23.4
2017-Nov-16 12:00N 30°17' W 029°23'0 0.0 1018.7 23.4
2017-Nov-16 11:00N 30°17' W 029°23'1 0.8 1018.5 23.4
2017-Nov-16 10:00N 30°17' W 029°23'1 0.8 1018.1 23.4
2017-Nov-16 09:00N 30°16' W 029°24'1 0.6 1017.6 23.4
2017-Nov-16 08:00N 30°16' W 029°24'0 0.0 1017.1 23.4
2017-Nov-16 07:00N 30°16' W 029°24'1 0.8 1016.5 23.4
2017-Nov-16 06:00N 30°15' W 029°25'1 0.6 1016.3 23.4
2017-Nov-16 05:00N 30°14' W 029°25'1 0.8 1016.1 23.4
2017-Nov-16 04:00N 30°14' W 029°24'0 0.0 1016.3 23.4
2017-Nov-16 03:00N 30°14' W 029°24'1 0.8 1016.4 23.4
2017-Nov-16 02:00N 30°13' W 029°23'0 0.0 1016.5 23.4
2017-Nov-16 01:00N 30°13' W 029°23'1 0.5 1016.6 23.4
2017-Nov-16 00:00N 30°13' W 029°23'0 0.0 1016.6 23.4
2017-Nov-15 23:00N 30°13' W 029°23'1 0.5 1016.4 23.4
2017-Nov-15 22:00N 30°13' W 029°22'0 0.0 1016.2 23.4
2017-Nov-15 21:00N 30°13' W 029°22'1 0.8 1015.7 23.4
2017-Nov-15 20:00N 30°14' W 029°23'0 0.0 1015.0 23.4
2017-Nov-15 19:00N 30°14' W 029°23'1 0.5 1014.5 23.4
2017-Nov-15 18:00N 30°14' W 029°23'1 0.5 1014.3 23.4
2017-Nov-15 17:00N 30°14' W 029°24'1 0.6 1014.2 23.4
2017-Nov-15 16:00N 30°14' W 029°24'1 0.5 1014.0 23.4
2017-Nov-15 15:00N 30°14' W 029°25'1 0.5 1014.4 23.4
2017-Nov-15 14:00N 30°14' W 029°25'0 0.0 1014.7 23.4
2017-Nov-15 13:00N 30°14' W 029°25'1 0.5 1015.1 23.4
2017-Nov-15 12:00N 30°14' W 029°26'1 0.5 1015.5 23.4
2017-Nov-15 11:00N 30°14' W 029°26'1 0.8 1015.3 23.4
2017-Nov-15 10:00N 30°14' W 029°27'1 0.5 1014.7 23.4
2017-Nov-15 09:00N 30°14' W 029°28'1 0.8 1014.2 23.3
2017-Nov-15 08:00N 30°13' W 029°28'1 0.8 1013.6 23.3
2017-Nov-15 07:00N 30°13' W 029°29'1 0.8 1013.0 23.4
2017-Nov-15 06:00N 30°12' W 029°29'1 0.6 1012.9 23.4
2017-Nov-15 05:00N 30°11' W 029°29'1 1.2 1012.7 23.3
2017-Nov-15 04:00N 30°10' W 029°29'1 0.6 1012.7 23.4
2017-Nov-15 03:00N 30°10' W 029°29'0 0.0 1012.9 23.4
2017-Nov-15 02:00N 30°10' W 029°29'1 0.8 1013.3 23.4
2017-Nov-15 01:00N 30°09' W 029°29'0 0.0 1013.6 23.4
2017-Nov-15 00:00N 30°09' W 029°29'1 0.5 1013.6 23.4
2017-Nov-14 23:00N 30°09' W 029°28'0 0.0 1013.8 23.4
2017-Nov-14 22:00N 30°09' W 029°28'1 0.5 1013.7 23.4
2017-Nov-14 21:00N 30°09' W 029°29'1 0.6 1013.0 23.4
2017-Nov-14 20:00N 30°08' W 029°29'0 0.0 1012.5 23.4
2017-Nov-14 19:00N 30°08' W 029°29'1 0.5 1012.0 23.4
2017-Nov-14 18:00N 30°08' W 029°29'1 0.8 1011.4 23.4
2017-Nov-14 17:00N 30°08' W 029°30'1 0.5 1011.3 23.4
2017-Nov-14 16:00N 30°08' W 029°31'1 0.5 1011.3 23.4
2017-Nov-14 15:00N 30°08' W 029°31'1 0.5 1011.8 23.4
2017-Nov-14 14:00N 30°08' W 029°32'1 0.8 1011.7 23.4
2017-Nov-14 13:00N 30°07' W 029°32'1 0.5 1012.2 23.4
2017-Nov-14 12:00N 30°07' W 029°33'1 0.8 1012.9 23.4
2017-Nov-14 11:00N 30°07' W 029°34'1 0.8 1012.7 23.4
2017-Nov-14 10:00N 30°06' W 029°34'1 0.8 1011.8 23.4
2017-Nov-14 09:00N 30°05' W 029°35'1 1.3 1011.5 23.3
2017-Nov-14 08:00N 30°04' W 029°35'1 0.6 1011.3 23.4
2017-Nov-14 07:00N 30°04' W 029°35'1 0.8 1010.9 23.4
2017-Nov-14 06:00N 30°03' W 029°36'1 0.8 1011.1 23.3
2017-Nov-14 05:00N 30°02' W 029°37'0 0.0 1011.3 23.3
2017-Nov-14 04:00N 30°02' W 029°37'1 0.8 1011.6 23.3
2017-Nov-14 03:00N 30°02' W 029°37'0 0.0 1011.6 23.3
2017-Nov-14 02:00N 30°02' W 029°37'1 0.8 1012.3 23.3
2017-Nov-14 01:00N 30°01' W 029°38'1 0.8 1013.1 23.3
2017-Nov-14 00:00N 30°01' W 029°38'1 0.6 1013.2 23.3
2017-Nov-13 23:00N 30°00' W 029°38'1 0.8 1013.0 23.3
2017-Nov-13 22:00N 29°59' W 029°39'1 0.6 1012.7 23.4
2017-Nov-13 21:00N 29°59' W 029°39'1 0.5 1013.2 23.3
2017-Nov-13 20:00N 29°59' W 029°40'1 0.6 1012.5 23.3
2017-Nov-13 19:00N 29°58' W 029°40'1 0.8 1012.4 23.3
2017-Nov-13 18:00N 29°58' W 029°40'1 0.5 1012.7 23.4
2017-Nov-13 17:00N 29°58' W 029°41'1 0.6 1012.7 23.4
2017-Nov-13 16:00N 29°57' W 029°41'1 0.5 1012.9 23.4
2017-Nov-13 15:00N 29°57' W 029°41'1 0.8 1013.4 23.4
2017-Nov-13 14:00N 29°56' W 029°42'1 0.5 1014.0 23.5
2017-Nov-13 13:00N 29°56' W 029°43'1 0.8 1014.9 23.4
2017-Nov-13 12:00N 29°56' W 029°43'1 0.6 1015.6 23.4
2017-Nov-13 11:00N 29°55' W 029°43'1 0.5 1015.6 23.4
2017-Nov-13 10:00N 29°55' W 029°44'1 0.8 1015.1 23.3
2017-Nov-13 09:00N 29°55' W 029°44'0 0.0 1014.7 23.4
2017-Nov-13 08:00N 29°55' W 029°44'1 0.6 1014.1 23.3
2017-Nov-13 07:00N 29°54' W 029°44'1 0.8 1013.9 23.4
2017-Nov-13 06:00N 29°53' W 029°45'1 0.8 1013.9 23.4
2017-Nov-13 05:00N 29°53' W 029°46'0 0.0 1014.1 23.4
2017-Nov-13 04:00N 29°53' W 029°46'1 0.8 1014.2 23.4
2017-Nov-13 03:00N 29°52' W 029°46'0 0.0 1014.6 23.4
2017-Nov-13 02:00N 29°52' W 029°46'1 0.8 1014.8 23.4
2017-Nov-13 01:00N 29°52' W 029°47'1 0.6 1015.3 23.4
2017-Nov-13 00:00N 29°51' W 029°47'1 0.5 1015.4 23.4
2017-Nov-12 23:00N 29°51' W 029°47'1 0.6 1015.2 23.3
2017-Nov-12 22:00N 29°50' W 029°47'0 0.0 1015.8 23.4
2017-Nov-12 21:00N 29°50' W 029°47'1 0.6 1015.4 23.3
2017-Nov-12 20:00N 29°50' W 029°47'0 0.0 1015.3 23.3
2017-Nov-12 19:00N 29°50' W 029°47'0 0.0 1015.3 23.3
2017-Nov-12 18:00N 29°50' W 029°47'1 0.5 1015.7 23.3
2017-Nov-12 17:00N 29°50' W 029°48'0 0.0 1016.1 23.3
2017-Nov-12 16:00N 29°50' W 029°48'1 0.5 1016.4 23.4
2017-Nov-12 15:00N 29°50' W 029°49'1 0.5 1016.8 23.4
2017-Nov-12 14:00N 29°50' W 029°49'0 0.0 1017.3 23.4
2017-Nov-12 13:00N 29°50' W 029°49'1 0.8 1017.8 23.4
2017-Nov-12 12:00N 29°49' W 029°50'0 0.0 1018.2 23.4
2017-Nov-12 11:00N 29°49' W 029°50'1 0.6 1018.1 23.4
2017-Nov-12 10:00N 29°49' W 029°50'   1018.2 23.4
Track history (hours):
 
Tides and Currents Weather Stations Pressure Air Temp Water Temp Dewpoint Dewpoint Depression Visibility Wind Speed Wind Dir Waves Ship Positions

Drifting buoy 44746

Last reported at 2017-Nov-22 10:00 UTC. Time now 2017-Nov-22 11:10 UTC.
Position N 30°42' W 029°23'.

Barometer 1017.5 mb
Water temperature 23.0 ° C

Date/timePositionNaut miles runAvg speedWind from/ knotsBaromVisibWave heightAir tempDewpointWater temp
2017-Nov-22 10:00N 30°42' W 029°23'1 0.5 1017.5 23.0
2017-Nov-22 09:00N 30°42' W 029°23'1 0.5 1017.2 23.0
2017-Nov-22 08:00N 30°42' W 029°22'0 0.0 1016.7 23.1
2017-Nov-22 07:00N 30°42' W 029°22'1 0.5 1016.2 23.1
2017-Nov-22 06:00N 30°42' W 029°22'0 0.0 1016.0 23.1
2017-Nov-22 05:00N 30°42' W 029°22'1 0.8 1016.1 23.1
2017-Nov-22 04:00N 30°41' W 029°21'1 0.5 1016.3 23.0
2017-Nov-22 03:00N 30°41' W 029°20'0 0.0 1016.3 23.0
2017-Nov-22 02:00N 30°41' W 029°20'1 0.8 1016.7 23.1
2017-Nov-22 01:00N 30°42' W 029°20'1 0.5 1016.8 23.1
2017-Nov-22 00:00N 30°42' W 029°19'0 0.0 1016.7 23.1
2017-Nov-21 23:00N 30°42' W 029°19'1 0.6 1016.8 23.1
2017-Nov-21 22:00N 30°43' W 029°19'0 0.0 1016.7 23.1
2017-Nov-21 21:00N 30°43' W 029°19'1 0.6 1016.2 23.1
2017-Nov-21 20:00N 30°43' W 029°19'1 0.5 1015.7 23.1
2017-Nov-21 19:00N 30°43' W 029°20'0 0.0 1015.0 23.1
2017-Nov-21 18:00N 30°43' W 029°20'1 0.5 1014.8 23.1
2017-Nov-21 17:00N 30°43' W 029°20'1 0.5 1014.7 23.1
2017-Nov-21 16:00N 30°43' W 029°21'0 0.0 1014.2 23.2
2017-Nov-21 15:00N 30°43' W 029°21'0 0.0 1014.4 23.2
2017-Nov-21 14:00N 30°43' W 029°21'0 0.0 1014.9 23.1
2017-Nov-21 13:00N 30°43' W 029°21'1 0.8 1015.0 23.1
2017-Nov-21 12:00N 30°43' W 029°20'0 0.0 1015.0 23.1
2017-Nov-21 11:00N 30°43' W 029°20'0 0.0 1014.5 23.1
2017-Nov-21 10:00N 30°43' W 029°20'1 0.5 1013.6 23.1
2017-Nov-21 09:00N 30°43' W 029°20'1 0.6 1013.0 23.1
2017-Nov-21 08:00N 30°43' W 029°20'1 0.5 1011.8 23.1
2017-Nov-21 07:00N 30°43' W 029°19'1 0.8 1011.3 23.1
2017-Nov-21 06:00N 30°44' W 029°19'0 0.0 1011.0 23.1
2017-Nov-21 05:00N 30°44' W 029°19'1 0.6 1010.6 23.0
2017-Nov-21 04:00N 30°44' W 029°19'1 0.5 1010.2 23.0
2017-Nov-21 03:00N 30°44' W 029°18'1 0.6 1009.8 23.0
2017-Nov-21 02:00N 30°45' W 029°18'1 0.6 1009.7 23.0
2017-Nov-21 01:00N 30°46' W 029°18'1 0.5 1009.2 23.0
2017-Nov-21 00:00N 30°46' W 029°17'1 0.6 1008.0 23.1
2017-Nov-20 23:00N 30°46' W 029°17'1 0.6 1007.4 23.1
2017-Nov-20 22:00N 30°47' W 029°17'0 0.0 1007.0 23.1
2017-Nov-20 21:00N 30°47' W 029°17'0 0.0 1006.7 23.1
2017-Nov-20 20:00N 30°47' W 029°17'1 0.8 1006.7 23.1
2017-Nov-20 19:00N 30°46' W 029°18'0 0.0 1006.7 23.1
2017-Nov-20 18:00N 30°46' W 029°18'1 0.8 1007.0 23.2
2017-Nov-20 17:00N 30°46' W 029°19'0 0.0 1007.4 23.2
2017-Nov-20 16:00N 30°46' W 029°19'1 0.8 1007.8 23.2
2017-Nov-20 15:00N 30°45' W 029°19'1 0.8 1008.5 23.1
2017-Nov-20 14:00N 30°44' W 029°20'1 0.6 1010.1 23.2
2017-Nov-20 13:00N 30°44' W 029°20'0 0.0 1011.4 23.2
2017-Nov-20 12:00N 30°44' W 029°20'1 0.8 1012.3 23.2
2017-Nov-20 11:00N 30°43' W 029°20'1 0.8 1012.7 23.2
2017-Nov-20 10:00N 30°43' W 029°21'0 0.0 1012.9 23.2
2017-Nov-20 09:00N 30°43' W 029°21'1 0.8 1012.8 23.2
2017-Nov-20 08:00N 30°42' W 029°22'1 0.8 1012.6 23.2
2017-Nov-20 07:00N 30°41' W 029°22'1 0.6 1012.2 23.2
2017-Nov-20 06:00N 30°41' W 029°22'1 1.2 1012.7 23.2
2017-Nov-20 05:00N 30°40' W 029°22'1 0.6 1013.3 23.2
2017-Nov-20 04:00N 30°39' W 029°22'1 0.6 1014.0 23.2
2017-Nov-20 03:00N 30°38' W 029°22'1 1.2 1014.4 23.2
2017-Nov-20 02:00N 30°37' W 029°22'1 0.8 1014.6 23.2
2017-Nov-20 01:00N 30°37' W 029°22'1 0.5 1014.9 23.2
2017-Nov-20 00:00N 30°37' W 029°21'1 0.8 1015.2 23.2
2017-Nov-19 23:00N 30°36' W 029°20'1 0.6 1015.6 23.2
2017-Nov-19 22:00N 30°35' W 029°20'1 0.5 1015.9 23.2
2017-Nov-19 21:00N 30°35' W 029°20'0 0.0 1016.0 23.2
2017-Nov-19 20:00N 30°35' W 029°20'1 0.5 1016.2 23.2
2017-Nov-19 19:00N 30°35' W 029°19'0 0.0 1016.0 23.3
2017-Nov-19 18:00N 30°35' W 029°19'0 0.0 1015.8 23.3
2017-Nov-19 17:00N 30°35' W 029°19'0 0.0 1015.9 23.3
2017-Nov-19 16:00N 30°35' W 029°19'1 0.6 1015.6 23.3
2017-Nov-19 15:00N 30°35' W 029°19'0 0.0 1015.9 23.3
2017-Nov-19 14:00N 30°35' W 029°19'1 0.6 1016.8 23.3
2017-Nov-19 13:00N 30°34' W 029°19'1 0.8 1017.6 23.3
2017-Nov-19 12:00N 30°34' W 029°19'1 0.6 1018.3 23.3
2017-Nov-19 11:00N 30°33' W 029°19'0 0.0 1018.0 23.3
2017-Nov-19 10:00N 30°33' W 029°19'1 0.8 1017.5 23.3
2017-Nov-19 09:00N 30°32' W 029°19'1 0.6 1017.7 23.3
2017-Nov-19 08:00N 30°32' W 029°19'1 0.8 1017.5 23.3
2017-Nov-19 07:00N 30°31' W 029°20'1 0.6 1016.7 23.3
2017-Nov-19 06:00N 30°31' W 029°20'1 0.6 1016.4 23.3
2017-Nov-19 05:00N 30°30' W 029°20'1 0.8 1016.8 23.3
2017-Nov-19 04:00N 30°29' W 029°20'1 0.8 1016.8 23.3
2017-Nov-19 03:00N 30°29' W 029°20'1 1.3 1017.2 23.3
2017-Nov-19 02:00N 30°28' W 029°19'1 0.6 1017.7 23.4
2017-Nov-19 01:00N 30°27' W 029°19'1 0.8 1017.8 23.3
2017-Nov-19 00:00N 30°26' W 029°19'1 0.8 1017.9 23.3
2017-Nov-18 23:00N 30°26' W 029°18'1 0.5 1017.6 23.4
2017-Nov-18 22:00N 30°26' W 029°17'1 0.5 1017.5 23.4
2017-Nov-18 21:00N 30°26' W 029°17'0 0.0 1017.1 23.4
2017-Nov-18 20:00N 30°26' W 029°17'0 0.0 1017.1 23.4
2017-Nov-18 19:00N 30°26' W 029°17'0 0.0 1016.9 23.4
2017-Nov-18 18:00N 30°26' W 029°17'1 0.5 1016.8 23.5
2017-Nov-18 17:00N 30°26' W 029°17'1 0.6 1016.4 23.5
2017-Nov-18 16:00N 30°25' W 029°17'0 0.0 1016.7 23.5
2017-Nov-18 15:00N 30°25' W 029°17'1 0.6 1016.7 23.5
2017-Nov-18 14:00N 30°25' W 029°17'0 0.0 1017.4 23.5
2017-Nov-18 13:00N 30°25' W 029°17'1 0.5 1017.9 23.4
2017-Nov-18 12:00N 30°25' W 029°18'1 0.6 1018.1 23.3
2017-Nov-18 11:00N 30°24' W 029°18'0 0.0 1018.1 23.2
2017-Nov-18 10:00N 30°24' W 029°18'1 0.5 1017.8 23.2
2017-Nov-18 09:00N 30°24' W 029°19'1 0.8 1017.4 23.2
2017-Nov-18 08:00N 30°23' W 029°19'1 0.5 1017.1 23.2
2017-Nov-18 07:00N 30°23' W 029°20'0 0.0 1017.0 23.2
2017-Nov-18 06:00N 30°23' W 029°20'1 0.8 1016.9 23.3
2017-Nov-18 05:00N 30°23' W 029°20'1 0.6 1016.9 23.3
2017-Nov-18 04:00N 30°22' W 029°20'1 0.6 1017.3 23.3
2017-Nov-18 03:00N 30°22' W 029°20'1 0.6 1017.4 23.3
2017-Nov-18 02:00N 30°21' W 029°20'1 0.5 1017.6 23.3
2017-Nov-18 01:00N 30°21' W 029°20'1 0.8 1017.6 23.3
2017-Nov-18 00:00N 30°20' W 029°19'1 0.5 1017.5 23.3
2017-Nov-17 23:00N 30°20' W 029°19'1 0.8 1017.5 23.3
2017-Nov-17 22:00N 30°20' W 029°18'1 0.6 1017.5 23.4
2017-Nov-17 21:00N 30°20' W 029°18'0 0.0 1017.1 23.4
2017-Nov-17 20:00N 30°20' W 029°18'0 0.0 1016.8 23.4
2017-Nov-17 19:00N 30°20' W 029°18'1 0.6 1016.8 23.4
2017-Nov-17 18:00N 30°21' W 029°18'1 0.6 1016.5 23.4
2017-Nov-17 17:00N 30°22' W 029°18'1 0.5 1016.7 23.4
2017-Nov-17 16:00N 30°22' W 029°19'1 0.5 1016.7 23.4
2017-Nov-17 15:00N 30°22' W 029°19'0 0.0 1017.2 23.4
2017-Nov-17 14:00N 30°22' W 029°19'1 0.8 1017.5 23.4
2017-Nov-17 13:00N 30°21' W 029°20'0 0.0 1018.1 23.4
2017-Nov-17 12:00N 30°21' W 029°20'1 0.8 1018.4 23.4
2017-Nov-17 11:00N 30°20' W 029°20'1 0.5 1018.1 23.4
2017-Nov-17 10:00N 30°20' W 029°21'1 0.6 1017.7 23.4
2017-Nov-17 09:00N 30°20' W 029°21'1 0.5 1017.3 23.4
2017-Nov-17 08:00N 30°20' W 029°22'1 0.8 1016.8 23.4
2017-Nov-17 07:00N 30°19' W 029°22'1 0.6 1016.6 23.4
2017-Nov-17 06:00N 30°19' W 029°22'1 0.6 1016.5 23.4
2017-Nov-17 05:00N 30°18' W 029°22'1 0.6 1016.9 23.4
2017-Nov-17 04:00N 30°17' W 029°22'0 0.0 1017.3 23.4
2017-Nov-17 03:00N 30°17' W 029°22'1 0.6 1017.3 23.4
2017-Nov-17 02:00N 30°17' W 029°22'1 0.8 1017.7 23.4
2017-Nov-17 01:00N 30°16' W 029°22'0 0.0 1018.3 23.4
2017-Nov-17 00:00N 30°16' W 029°22'1 0.5 1018.2 23.4
2017-Nov-16 23:00N 30°16' W 029°21'1 0.5 1018.2 23.4
2017-Nov-16 22:00N 30°16' W 029°20'0 0.0 1018.1 23.4
2017-Nov-16 21:00N 30°16' W 029°20'0 0.0 1017.6 23.4
2017-Nov-16 20:00N 30°16' W 029°20'1 0.6 1017.4 23.4
2017-Nov-16 19:00N 30°17' W 029°20'0 0.0 1017.1 23.4
2017-Nov-16 18:00N 30°17' W 029°20'1 0.8 1017.0 23.4
2017-Nov-16 17:00N 30°17' W 029°21'0 0.0 1017.0 23.5
2017-Nov-16 16:00N 30°17' W 029°21'1 0.8 1016.7 23.5
2017-Nov-16 15:00N 30°18' W 029°22'0 0.0 1017.0 23.5
2017-Nov-16 14:00N 30°18' W 029°22'1 0.8 1017.7 23.5
2017-Nov-16 13:00N 30°17' W 029°22'1 0.5 1018.2 23.4
2017-Nov-16 12:00N 30°17' W 029°23'0 0.0 1018.7 23.4
2017-Nov-16 11:00N 30°17' W 029°23'1 0.8 1018.5 23.4
2017-Nov-16 10:00N 30°17' W 029°23'1 0.8 1018.1 23.4
2017-Nov-16 09:00N 30°16' W 029°24'1 0.6 1017.6 23.4
2017-Nov-16 08:00N 30°16' W 029°24'0 0.0 1017.1 23.4
2017-Nov-16 07:00N 30°16' W 029°24'1 0.8 1016.5 23.4
2017-Nov-16 06:00N 30°15' W 029°25'1 0.6 1016.3 23.4
2017-Nov-16 05:00N 30°14' W 029°25'1 0.8 1016.1 23.4
2017-Nov-16 04:00N 30°14' W 029°24'0 0.0 1016.3 23.4
2017-Nov-16 03:00N 30°14' W 029°24'1 0.8 1016.4 23.4
2017-Nov-16 02:00N 30°13' W 029°23'0 0.0 1016.5 23.4
2017-Nov-16 01:00N 30°13' W 029°23'1 0.5 1016.6 23.4
2017-Nov-16 00:00N 30°13' W 029°23'0 0.0 1016.6 23.4
2017-Nov-15 23:00N 30°13' W 029°23'1 0.5 1016.4 23.4
2017-Nov-15 22:00N 30°13' W 029°22'0 0.0 1016.2 23.4
2017-Nov-15 21:00N 30°13' W 029°22'1 0.8 1015.7 23.4
2017-Nov-15 20:00N 30°14' W 029°23'0 0.0 1015.0 23.4
2017-Nov-15 19:00N 30°14' W 029°23'1 0.5 1014.5 23.4
2017-Nov-15 18:00N 30°14' W 029°23'1 0.5 1014.3 23.4
2017-Nov-15 17:00N 30°14' W 029°24'1 0.6 1014.2 23.4
2017-Nov-15 16:00N 30°14' W 029°24'1 0.5 1014.0 23.4
2017-Nov-15 15:00N 30°14' W 029°25'1 0.5 1014.4 23.4
2017-Nov-15 14:00N 30°14' W 029°25'0 0.0 1014.7 23.4
2017-Nov-15 13:00N 30°14' W 029°25'1 0.5 1015.1 23.4
2017-Nov-15 12:00N 30°14' W 029°26'1 0.5 1015.5 23.4
2017-Nov-15 11:00N 30°14' W 029°26'1 0.8 1015.3 23.4
2017-Nov-15 10:00N 30°14' W 029°27'1 0.5 1014.7 23.4
2017-Nov-15 09:00N 30°14' W 029°28'1 0.8 1014.2 23.3
2017-Nov-15 08:00N 30°13' W 029°28'1 0.8 1013.6 23.3
2017-Nov-15 07:00N 30°13' W 029°29'1 0.8 1013.0 23.4
2017-Nov-15 06:00N 30°12' W 029°29'1 0.6 1012.9 23.4
2017-Nov-15 05:00N 30°11' W 029°29'1 1.2 1012.7 23.3
2017-Nov-15 04:00N 30°10' W 029°29'1 0.6 1012.7 23.4
2017-Nov-15 03:00N 30°10' W 029°29'0 0.0 1012.9 23.4
2017-Nov-15 02:00N 30°10' W 029°29'1 0.8 1013.3 23.4
2017-Nov-15 01:00N 30°09' W 029°29'0 0.0 1013.6 23.4
2017-Nov-15 00:00N 30°09' W 029°29'1 0.5 1013.6 23.4
2017-Nov-14 23:00N 30°09' W 029°28'0 0.0 1013.8 23.4
2017-Nov-14 22:00N 30°09' W 029°28'1 0.5 1013.7 23.4
2017-Nov-14 21:00N 30°09' W 029°29'1 0.6 1013.0 23.4
2017-Nov-14 20:00N 30°08' W 029°29'0 0.0 1012.5 23.4
2017-Nov-14 19:00N 30°08' W 029°29'1 0.5 1012.0 23.4
2017-Nov-14 18:00N 30°08' W 029°29'1 0.8 1011.4 23.4
2017-Nov-14 17:00N 30°08' W 029°30'1 0.5 1011.3 23.4
2017-Nov-14 16:00N 30°08' W 029°31'1 0.5 1011.3 23.4
2017-Nov-14 15:00N 30°08' W 029°31'1 0.5 1011.8 23.4
2017-Nov-14 14:00N 30°08' W 029°32'1 0.8 1011.7 23.4
2017-Nov-14 13:00N 30°07' W 029°32'1 0.5 1012.2 23.4
2017-Nov-14 12:00N 30°07' W 029°33'1 0.8 1012.9 23.4
2017-Nov-14 11:00N 30°07' W 029°34'1 0.8 1012.7 23.4
2017-Nov-14 10:00N 30°06' W 029°34'1 0.8 1011.8 23.4
2017-Nov-14 09:00N 30°05' W 029°35'1 1.3 1011.5 23.3
2017-Nov-14 08:00N 30°04' W 029°35'1 0.6 1011.3 23.4
2017-Nov-14 07:00N 30°04' W 029°35'1 0.8 1010.9 23.4
2017-Nov-14 06:00N 30°03' W 029°36'1 0.8 1011.1 23.3
2017-Nov-14 05:00N 30°02' W 029°37'0 0.0 1011.3 23.3
2017-Nov-14 04:00N 30°02' W 029°37'1 0.8 1011.6 23.3
2017-Nov-14 03:00N 30°02' W 029°37'0 0.0 1011.6 23.3
2017-Nov-14 02:00N 30°02' W 029°37'1 0.8 1012.3 23.3
2017-Nov-14 01:00N 30°01' W 029°38'1 0.8 1013.1 23.3
2017-Nov-14 00:00N 30°01' W 029°38'1 0.6 1013.2 23.3
2017-Nov-13 23:00N 30°00' W 029°38'1 0.8 1013.0 23.3
2017-Nov-13 22:00N 29°59' W 029°39'1 0.6 1012.7 23.4
2017-Nov-13 21:00N 29°59' W 029°39'1 0.5 1013.2 23.3
2017-Nov-13 20:00N 29°59' W 029°40'1 0.6 1012.5 23.3
2017-Nov-13 19:00N 29°58' W 029°40'1 0.8 1012.4 23.3
2017-Nov-13 18:00N 29°58' W 029°40'1 0.5 1012.7 23.4
2017-Nov-13 17:00N 29°58' W 029°41'1 0.6 1012.7 23.4
2017-Nov-13 16:00N 29°57' W 029°41'1 0.5 1012.9 23.4
2017-Nov-13 15:00N 29°57' W 029°41'1 0.8 1013.4 23.4
2017-Nov-13 14:00N 29°56' W 029°42'1 0.5 1014.0 23.5
2017-Nov-13 13:00N 29°56' W 029°43'1 0.8 1014.9 23.4
2017-Nov-13 12:00N 29°56' W 029°43'1 0.6 1015.6 23.4
2017-Nov-13 11:00N 29°55' W 029°43'1 0.5 1015.6 23.4
2017-Nov-13 10:00N 29°55' W 029°44'1 0.8 1015.1 23.3
2017-Nov-13 09:00N 29°55' W 029°44'0 0.0 1014.7 23.4
2017-Nov-13 08:00N 29°55' W 029°44'1 0.6 1014.1 23.3
2017-Nov-13 07:00N 29°54' W 029°44'1 0.8 1013.9 23.4
2017-Nov-13 06:00N 29°53' W 029°45'1 0.8 1013.9 23.4
2017-Nov-13 05:00N 29°53' W 029°46'0 0.0 1014.1 23.4
2017-Nov-13 04:00N 29°53' W 029°46'1 0.8 1014.2 23.4
2017-Nov-13 03:00N 29°52' W 029°46'0 0.0 1014.6 23.4
2017-Nov-13 02:00N 29°52' W 029°46'1 0.8 1014.8 23.4
2017-Nov-13 01:00N 29°52' W 029°47'1 0.6 1015.3 23.4
2017-Nov-13 00:00N 29°51' W 029°47'1 0.5 1015.4 23.4
2017-Nov-12 23:00N 29°51' W 029°47'1 0.6 1015.2 23.3
2017-Nov-12 22:00N 29°50' W 029°47'0 0.0 1015.8 23.4
2017-Nov-12 21:00N 29°50' W 029°47'1 0.6 1015.4 23.3
2017-Nov-12 20:00N 29°50' W 029°47'0 0.0 1015.3 23.3
2017-Nov-12 19:00N 29°50' W 029°47'0 0.0 1015.3 23.3
2017-Nov-12 18:00N 29°50' W 029°47'1 0.5 1015.7 23.3
2017-Nov-12 17:00N 29°50' W 029°48'0 0.0 1016.1 23.3
2017-Nov-12 16:00N 29°50' W 029°48'1 0.5 1016.4 23.4
2017-Nov-12 15:00N 29°50' W 029°49'1 0.5 1016.8 23.4
2017-Nov-12 14:00N 29°50' W 029°49'0 0.0 1017.3 23.4
2017-Nov-12 13:00N 29°50' W 029°49'1 0.8 1017.8 23.4
2017-Nov-12 12:00N 29°49' W 029°50'0 0.0 1018.2 23.4
2017-Nov-12 11:00N 29°49' W 029°50'1 0.6 1018.1 23.4
2017-Nov-12 10:00N 29°49' W 029°50'   1018.2 23.4

Dump ship's entire track history